Главная страница
METAR-TAF:

METAR-TAF

Аэропорты :

Кларксберг, Западная Виргиния, США

широта: 39-18-00N, долгота: 080-13-29W, высота над уровнем моря: 366 м

Текущие метеонаблюдения

Эта сводка был подготовлена 56 минут назад, в 13:53 UTC
Ветер 3 Узел переменных направлений
Температура 25°C
Влажность 69%
Давление 1023 hPa
Видимость: 16.1 км
ясное небо

METAR: KCKB 091353Z VRB03KT 10SM CLR 25/19 A3021 RMK AO2 SLP214 T02500189 $

Время: 10:49 (14:49 UTC)

Прогноз

Эта сводка был подготовлена 16 минут назад, в 14:33 UTC
Прогноз действительный с 09-го 15 UTC до 10-го 12 UTC
Ветер 5 Узел переменных направлений
Видимость: 10 км
Отдельные облака на высоте 5000 фута
С 10-го 0800 UTC
Ветер Узел от северный
Видимость: 3.2 км
небольшая облачность на высоте 100 фута
дымка
С 10-го 0900 UTC
Ветер Узел от северный
Видимость: 0.8 км
на высоте 100 фута
туман

TAF: KCKB 091433Z 0915/1012 VRB05KT P6SM SCT050 FM100800 00000KT 2SM BR FEW001 FM100900 00000KT 1/2SM FG VV001

Метеонаблюдения и прогнозы для более 4000 аэропортов (сводки METAR и TAF).

Имеющиеся станции представлены на карте желтыми и красными точками.

Чтобы увидеть название станции, наведите на нее мышь.

Затем щелкните, чтобы увидеть метеонаблюдения и метеопрогнозы.

Управление картой: чтобы увеличить масштаб, щелкните зеленые кнопки с черным крестиком; чтобы уменьшить масштаб, щелкните зеленую кнопку с тире; для просмотра соседних карт щелкайте зеленые стрелки.


METAR-TAF: